Kezdőlap
METAR-TAF:

METAR-TAF

Repülőterek :

Litchfield Municipal Airport

Litchfield, Illinois, Amerikai Egyesült Államok

földrajzi szélesség: 39-09-44N, földrajzi hosszúság: 089-40-28W, magasság: 210 m

Jelenlegi meteorológiai megfigyelések

A jelentés 29 perccel ezelõtt készült, 14:35 UTC
Délkeleti szél 5 kt
Hőmérséklet 11°C
Páratartalom 82%
Légköri nyomás 1020 hPa
Látótávolság: 11.3 km
Borult 3800 lábon

METAR: K3LF 061435Z AUTO 14005KT 7SM OVC038 11/08 A3011 RMK AO2 T01110082

Idő: 10:04 (15:04 UTC)


TAF: hiányzik

Meteorológiai megfigyelések és előrejelzések több, mint 4000 repülőtéren (METAR és TAF jelentéseket).

A térképen piros és sárga pontok jelzik az elérhető meteorológiai állomásokat.

Mozgassa az egeret a pont fölött, hogy megjelenjen az állomás neve.

Azután kattintson az időjárási megfigyelések és előrejelzések megtekintéséhez.

A térkép megváltoztatása: kattintson a fekete keresztel jelölt zöld gombra ráközelítéshez, a vonallal jelölt zöld gombra távolításhoz, vagy a zöld nyilakra a szomszédos térképek eléréséhez.


METAR-TAF: